sensor_id;sensor_type;location;lat;lon;timestamp;P1;durP1;ratioP1;P2;durP2;ratioP2
51862;SDS011;37900;52.996;6.278;2023-03-14T00:01:47;5.32;;;2.40;;
51862;SDS011;37900;52.996;6.278;2023-03-14T00:04:13;5.70;;;1.98;;
51862;SDS011;37900;52.996;6.278;2023-03-14T00:06:39;5.53;;;2.20;;
51862;SDS011;37900;52.996;6.278;2023-03-14T00:09:05;5.60;;;2.08;;
51862;SDS011;37900;52.996;6.278;2023-03-14T00:11:31;5.53;;;2.40;;
51862;SDS011;37900;52.996;6.278;2023-03-14T00:13:57;6.38;;;2.78;;
51862;SDS011;37900;52.996;6.278;2023-03-14T00:16:24;5.20;;;2.25;;
51862;SDS011;37900;52.996;6.278;2023-03-14T00:18:50;4.82;;;1.95;;
51862;SDS011;37900;52.996;6.278;2023-03-14T00:21:16;5.93;;;2.10;;
51862;SDS011;37900;52.996;6.278;2023-03-14T00:23:42;5.47;;;2.80;;
51862;SDS011;37900;52.996;6.278;2023-03-14T00:26:09;4.90;;;2.13;;
51862;SDS011;37900;52.996;6.278;2023-03-14T00:28:37;4.85;;;1.77;;
51862;SDS011;37900;52.996;6.278;2023-03-14T00:31:04;3.00;;;1.75;;
51862;SDS011;37900;52.996;6.278;2023-03-14T00:33:31;5.55;;;2.22;;
51862;SDS011;37900;52.996;6.278;2023-03-14T00:35:58;4.00;;;2.28;;
51862;SDS011;37900;52.996;6.278;2023-03-14T00:38:26;4.22;;;1.90;;
51862;SDS011;37900;52.996;6.278;2023-03-14T00:40:52;3.90;;;2.33;;
51862;SDS011;37900;52.996;6.278;2023-03-14T00:43:18;5.97;;;2.45;;
51862;SDS011;37900;52.996;6.278;2023-03-14T00:45:49;4.43;;;2.03;;
51862;SDS011;37900;52.996;6.278;2023-03-14T00:48:16;5.78;;;2.20;;
51862;SDS011;37900;52.996;6.278;2023-03-14T00:50:43;5.55;;;2.10;;
51862;SDS011;37900;52.996;6.278;2023-03-14T00:53:09;5.88;;;2.17;;
51862;SDS011;37900;52.996;6.278;2023-03-14T00:55:39;4.68;;;1.95;;
51862;SDS011;37900;52.996;6.278;2023-03-14T00:58:05;4.07;;;2.20;;
51862;SDS011;37900;52.996;6.278;2023-03-14T01:00:31;3.40;;;1.90;;
51862;SDS011;37900;52.996;6.278;2023-03-14T01:02:57;4.68;;;2.58;;
51862;SDS011;37900;52.996;6.278;2023-03-14T01:05:23;5.05;;;2.10;;
51862;SDS011;37900;52.996;6.278;2023-03-14T01:07:49;3.17;;;1.70;;
51862;SDS011;37900;52.996;6.278;2023-03-14T01:10:14;4.95;;;2.20;;
51862;SDS011;37900;52.996;6.278;2023-03-14T01:12:41;4.93;;;1.98;;
51862;SDS011;37900;52.996;6.278;2023-03-14T01:15:07;6.07;;;2.03;;
51862;SDS011;37900;52.996;6.278;2023-03-14T01:17:33;5.30;;;1.88;;
51862;SDS011;37900;52.996;6.278;2023-03-14T01:19:59;4.45;;;1.90;;
51862;SDS011;37900;52.996;6.278;2023-03-14T01:22:25;6.43;;;2.30;;
51862;SDS011;37900;52.996;6.278;2023-03-14T01:24:51;3.58;;;2.10;;
51862;SDS011;37900;52.996;6.278;2023-03-14T01:27:16;4.20;;;2.03;;
51862;SDS011;37900;52.996;6.278;2023-03-14T01:29:42;5.40;;;2.00;;
51862;SDS011;37900;52.996;6.278;2023-03-14T01:32:08;4.05;;;1.88;;
51862;SDS011;37900;52.996;6.278;2023-03-14T01:34:34;4.30;;;2.15;;
51862;SDS011;37900;52.996;6.278;2023-03-14T01:36:59;6.63;;;2.58;;
51862;SDS011;37900;52.996;6.278;2023-03-14T01:39:25;2.90;;;1.70;;
51862;SDS011;37900;52.996;6.278;2023-03-14T01:41:50;5.57;;;2.05;;
51862;SDS011;37900;52.996;6.278;2023-03-14T01:44:16;4.82;;;2.00;;
51862;SDS011;37900;52.996;6.278;2023-03-14T01:46:42;4.20;;;1.70;;
51862;SDS011;37900;52.996;6.278;2023-03-14T01:49:26;3.05;;;1.75;;
51862;SDS011;37900;52.996;6.278;2023-03-14T01:52:03;2.80;;;1.73;;
51862;SDS011;37900;52.996;6.278;2023-03-14T01:54:46;7.53;;;2.05;;
51862;SDS011;37900;52.996;6.278;2023-03-14T01:57:24;5.78;;;2.65;;
51862;SDS011;37900;52.996;6.278;2023-03-14T02:00:07;3.08;;;1.67;;
51862;SDS011;37900;52.996;6.278;2023-03-14T02:02:36;3.60;;;2.00;;
51862;SDS011;37900;52.996;6.278;2023-03-14T02:05:04;4.50;;;2.00;;
51862;SDS011;37900;52.996;6.278;2023-03-14T02:07:39;5.70;;;1.90;;
51862;SDS011;37900;52.996;6.278;2023-03-14T02:10:33;6.63;;;1.75;;
51862;SDS011;37900;52.996;6.278;2023-03-14T02:13:03;3.72;;;1.95;;
51862;SDS011;37900;52.996;6.278;2023-03-14T02:15:31;5.80;;;2.42;;
51862;SDS011;37900;52.996;6.278;2023-03-14T02:17:58;3.67;;;2.08;;
51862;SDS011;37900;52.996;6.278;2023-03-14T02:22:50;4.40;;;1.95;;
51862;SDS011;37900;52.996;6.278;2023-03-14T02:25:18;4.60;;;1.90;;
51862;SDS011;37900;52.996;6.278;2023-03-14T02:28:05;4.75;;;1.95;;
51862;SDS011;37900;52.996;6.278;2023-03-14T02:30:32;5.53;;;2.33;;
51862;SDS011;37900;52.996;6.278;2023-03-14T02:33:08;3.42;;;1.85;;
51862;SDS011;37900;52.996;6.278;2023-03-14T02:41:16;3.60;;;1.70;;
51862;SDS011;37900;52.996;6.278;2023-03-14T02:43:42;3.53;;;1.80;;
51862;SDS011;37900;52.996;6.278;2023-03-14T02:46:09;3.03;;;1.80;;
51862;SDS011;37900;52.996;6.278;2023-03-14T02:48:41;2.90;;;1.60;;
51862;SDS011;37900;52.996;6.278;2023-03-14T02:51:12;5.00;;;2.05;;
51862;SDS011;37900;52.996;6.278;2023-03-14T02:53:40;4.32;;;2.40;;
51862;SDS011;37900;52.996;6.278;2023-03-14T02:56:06;3.47;;;1.70;;
51862;SDS011;37900;52.996;6.278;2023-03-14T02:58:33;5.15;;;1.85;;
51862;SDS011;37900;52.996;6.278;2023-03-14T03:00:59;3.85;;;1.80;;
51862;SDS011;37900;52.996;6.278;2023-03-14T03:03:24;4.40;;;1.88;;
51862;SDS011;37900;52.996;6.278;2023-03-14T03:05:51;3.53;;;1.75;;
51862;SDS011;37900;52.996;6.278;2023-03-14T03:08:18;4.03;;;2.17;;
51862;SDS011;37900;52.996;6.278;2023-03-14T03:13:11;4.65;;;1.90;;
51862;SDS011;37900;52.996;6.278;2023-03-14T03:15:37;2.05;;;1.30;;
51862;SDS011;37900;52.996;6.278;2023-03-14T03:18:03;3.05;;;1.60;;
51862;SDS011;37900;52.996;6.278;2023-03-14T03:20:29;3.92;;;1.58;;
51862;SDS011;37900;52.996;6.278;2023-03-14T03:22:55;3.67;;;1.80;;
51862;SDS011;37900;52.996;6.278;2023-03-14T03:25:20;4.20;;;1.60;;
51862;SDS011;37900;52.996;6.278;2023-03-14T03:27:46;3.53;;;1.83;;
51862;SDS011;37900;52.996;6.278;2023-03-14T03:30:12;3.30;;;1.70;;
51862;SDS011;37900;52.996;6.278;2023-03-14T03:32:38;4.65;;;1.80;;
51862;SDS011;37900;52.996;6.278;2023-03-14T03:35:04;2.40;;;1.20;;
51862;SDS011;37900;52.996;6.278;2023-03-14T03:37:31;3.95;;;1.98;;
51862;SDS011;37900;52.996;6.278;2023-03-14T03:39:58;3.78;;;1.80;;
51862;SDS011;37900;52.996;6.278;2023-03-14T03:42:23;3.03;;;1.65;;
51862;SDS011;37900;52.996;6.278;2023-03-14T03:47:16;4.05;;;1.60;;
51862;SDS011;37900;52.996;6.278;2023-03-14T03:49:42;2.72;;;1.48;;
51862;SDS011;37900;52.996;6.278;2023-03-14T03:52:08;3.25;;;1.50;;
51862;SDS011;37900;52.996;6.278;2023-03-14T03:54:34;4.43;;;1.58;;
51862;SDS011;37900;52.996;6.278;2023-03-14T03:57:00;3.17;;;1.58;;
51862;SDS011;37900;52.996;6.278;2023-03-14T03:59:26;3.53;;;1.27;;
51862;SDS011;37900;52.996;6.278;2023-03-14T04:01:52;3.70;;;1.40;;
51862;SDS011;37900;52.996;6.278;2023-03-14T04:04:17;2.55;;;1.45;;
51862;SDS011;37900;52.996;6.278;2023-03-14T04:06:43;2.67;;;1.40;;
51862;SDS011;37900;52.996;6.278;2023-03-14T04:09:09;3.92;;;1.55;;
51862;SDS011;37900;52.996;6.278;2023-03-14T04:11:35;3.53;;;1.27;;
51862;SDS011;37900;52.996;6.278;2023-03-14T04:14:01;3.08;;;1.63;;
51862;SDS011;37900;52.996;6.278;2023-03-14T04:16:28;3.75;;;1.88;;
51862;SDS011;37900;52.996;6.278;2023-03-14T04:18:56;3.60;;;1.45;;
51862;SDS011;37900;52.996;6.278;2023-03-14T04:21:22;2.42;;;1.35;;
51862;SDS011;37900;52.996;6.278;2023-03-14T04:23:48;3.03;;;1.50;;
51862;SDS011;37900;52.996;6.278;2023-03-14T04:26:14;2.47;;;1.35;;
51862;SDS011;37900;52.996;6.278;2023-03-14T04:28:41;2.88;;;1.58;;
51862;SDS011;37900;52.996;6.278;2023-03-14T04:31:08;3.63;;;1.52;;
51862;SDS011;37900;52.996;6.278;2023-03-14T04:33:35;1.63;;;1.20;;
51862;SDS011;37900;52.996;6.278;2023-03-14T04:36:02;3.38;;;1.70;;
51862;SDS011;37900;52.996;6.278;2023-03-14T04:38:29;3.30;;;1.65;;
51862;SDS011;37900;52.996;6.278;2023-03-14T04:40:55;1.60;;;1.13;;
51862;SDS011;37900;52.996;6.278;2023-03-14T04:43:20;3.38;;;1.52;;
51862;SDS011;37900;52.996;6.278;2023-03-14T04:45:46;2.92;;;1.60;;
51862;SDS011;37900;52.996;6.278;2023-03-14T04:48:12;2.47;;;1.40;;
51862;SDS011;37900;52.996;6.278;2023-03-14T04:50:38;2.53;;;1.33;;
51862;SDS011;37900;52.996;6.278;2023-03-14T04:53:05;3.80;;;1.70;;
51862;SDS011;37900;52.996;6.278;2023-03-14T04:55:31;2.50;;;1.52;;
51862;SDS011;37900;52.996;6.278;2023-03-14T04:57:58;1.63;;;1.20;;
51862;SDS011;37900;52.996;6.278;2023-03-14T05:00:24;2.60;;;1.30;;
51862;SDS011;37900;52.996;6.278;2023-03-14T05:02:50;2.70;;;1.23;;
51862;SDS011;37900;52.996;6.278;2023-03-14T05:05:16;2.80;;;1.38;;
51862;SDS011;37900;52.996;6.278;2023-03-14T05:07:41;2.38;;;1.15;;
51862;SDS011;37900;52.996;6.278;2023-03-14T05:10:10;3.53;;;1.67;;
51862;SDS011;37900;52.996;6.278;2023-03-14T05:12:35;2.63;;;1.50;;
51862;SDS011;37900;52.996;6.278;2023-03-14T05:15:01;3.33;;;1.40;;
51862;SDS011;37900;52.996;6.278;2023-03-14T05:17:27;2.25;;;1.30;;
51862;SDS011;37900;52.996;6.278;2023-03-14T05:19:53;3.63;;;1.50;;
51862;SDS011;37900;52.996;6.278;2023-03-14T05:22:18;3.20;;;1.55;;
51862;SDS011;37900;52.996;6.278;2023-03-14T05:24:44;2.72;;;1.35;;
51862;SDS011;37900;52.996;6.278;2023-03-14T05:27:10;2.17;;;1.42;;
51862;SDS011;37900;52.996;6.278;2023-03-14T05:29:35;3.30;;;1.30;;
51862;SDS011;37900;52.996;6.278;2023-03-14T05:32:01;3.83;;;1.35;;
51862;SDS011;37900;52.996;6.278;2023-03-14T05:34:27;2.25;;;1.40;;
51862;SDS011;37900;52.996;6.278;2023-03-14T05:36:53;1.45;;;1.02;;
51862;SDS011;37900;52.996;6.278;2023-03-14T05:39:18;2.22;;;1.42;;
51862;SDS011;37900;52.996;6.278;2023-03-14T05:41:44;2.13;;;1.42;;
51862;SDS011;37900;52.996;6.278;2023-03-14T05:44:10;2.13;;;1.40;;
51862;SDS011;37900;52.996;6.278;2023-03-14T05:46:35;3.30;;;1.30;;
51862;SDS011;37900;52.996;6.278;2023-03-14T05:49:01;4.05;;;1.50;;
51862;SDS011;37900;52.996;6.278;2023-03-14T05:51:27;2.65;;;1.38;;
51862;SDS011;37900;52.996;6.278;2023-03-14T05:53:52;2.03;;;1.30;;
51862;SDS011;37900;52.996;6.278;2023-03-14T05:56:18;2.53;;;1.45;;
51862;SDS011;37900;52.996;6.278;2023-03-14T05:58:44;2.10;;;1.10;;
51862;SDS011;37900;52.996;6.278;2023-03-14T06:01:09;2.97;;;1.13;;
51862;SDS011;37900;52.996;6.278;2023-03-14T06:03:35;2.40;;;1.27;;
51862;SDS011;37900;52.996;6.278;2023-03-14T06:06:01;2.55;;;1.40;;
51862;SDS011;37900;52.996;6.278;2023-03-14T06:08:27;2.95;;;1.30;;
51862;SDS011;37900;52.996;6.278;2023-03-14T06:10:53;3.00;;;1.17;;
51862;SDS011;37900;52.996;6.278;2023-03-14T06:13:19;1.80;;;1.02;;
51862;SDS011;37900;52.996;6.278;2023-03-14T06:15:45;2.67;;;1.50;;
51862;SDS011;37900;52.996;6.278;2023-03-14T06:18:11;2.83;;;1.40;;
51862;SDS011;37900;52.996;6.278;2023-03-14T06:20:37;2.33;;;1.20;;
51862;SDS011;37900;52.996;6.278;2023-03-14T06:23:07;2.00;;;0.98;;
51862;SDS011;37900;52.996;6.278;2023-03-14T06:25:34;3.67;;;1.42;;
51862;SDS011;37900;52.996;6.278;2023-03-14T06:28:00;2.63;;;1.45;;
51862;SDS011;37900;52.996;6.278;2023-03-14T06:30:26;3.55;;;1.27;;
51862;SDS011;37900;52.996;6.278;2023-03-14T06:32:52;2.88;;;1.55;;
51862;SDS011;37900;52.996;6.278;2023-03-14T06:35:18;2.53;;;1.20;;
51862;SDS011;37900;52.996;6.278;2023-03-14T06:37:44;2.45;;;1.10;;
51862;SDS011;37900;52.996;6.278;2023-03-14T06:40:10;2.28;;;1.30;;
51862;SDS011;37900;52.996;6.278;2023-03-14T06:42:45;2.90;;;1.38;;
51862;SDS011;37900;52.996;6.278;2023-03-14T06:45:11;3.30;;;1.23;;
51862;SDS011;37900;52.996;6.278;2023-03-14T06:47:38;2.70;;;1.67;;
51862;SDS011;37900;52.996;6.278;2023-03-14T06:50:04;3.70;;;1.55;;
51862;SDS011;37900;52.996;6.278;2023-03-14T06:54:56;2.95;;;1.50;;
51862;SDS011;37900;52.996;6.278;2023-03-14T06:57:22;7.55;;;2.00;;
51862;SDS011;37900;52.996;6.278;2023-03-14T06:59:48;5.65;;;2.10;;
51862;SDS011;37900;52.996;6.278;2023-03-14T07:02:13;6.78;;;2.42;;
51862;SDS011;37900;52.996;6.278;2023-03-14T07:04:39;3.40;;;1.77;;
51862;SDS011;37900;52.996;6.278;2023-03-14T07:07:05;3.85;;;1.77;;
51862;SDS011;37900;52.996;6.278;2023-03-14T07:09:32;5.43;;;1.90;;
51862;SDS011;37900;52.996;6.278;2023-03-14T07:11:58;8.25;;;1.80;;
51862;SDS011;37900;52.996;6.278;2023-03-14T07:14:24;7.78;;;1.40;;
51862;SDS011;37900;52.996;6.278;2023-03-14T07:16:49;11.82;;;1.80;;
51862;SDS011;37900;52.996;6.278;2023-03-14T07:19:15;6.30;;;1.70;;
51862;SDS011;37900;52.996;6.278;2023-03-14T07:21:41;5.32;;;1.60;;
51862;SDS011;37900;52.996;6.278;2023-03-14T07:24:07;7.65;;;1.52;;
51862;SDS011;37900;52.996;6.278;2023-03-14T07:26:33;3.78;;;1.40;;
51862;SDS011;37900;52.996;6.278;2023-03-14T07:28:59;5.28;;;1.55;;
51862;SDS011;37900;52.996;6.278;2023-03-14T07:31:24;2.95;;;1.10;;
51862;SDS011;37900;52.996;6.278;2023-03-14T07:33:50;3.08;;;1.50;;
51862;SDS011;37900;52.996;6.278;2023-03-14T07:36:16;3.47;;;1.67;;
51862;SDS011;37900;52.996;6.278;2023-03-14T07:38:42;3.72;;;1.80;;
51862;SDS011;37900;52.996;6.278;2023-03-14T07:41:08;2.85;;;1.50;;
51862;SDS011;37900;52.996;6.278;2023-03-14T07:43:33;5.60;;;1.70;;
51862;SDS011;37900;52.996;6.278;2023-03-14T07:45:59;3.85;;;1.90;;
51862;SDS011;37900;52.996;6.278;2023-03-14T07:48:25;3.72;;;1.63;;
51862;SDS011;37900;52.996;6.278;2023-03-14T07:50:52;3.08;;;1.73;;
51862;SDS011;37900;52.996;6.278;2023-03-14T07:53:19;5.05;;;1.60;;
51862;SDS011;37900;52.996;6.278;2023-03-14T07:55:45;2.90;;;1.67;;
51862;SDS011;37900;52.996;6.278;2023-03-14T07:58:11;3.13;;;1.48;;
51862;SDS011;37900;52.996;6.278;2023-03-14T08:00:37;2.92;;;1.77;;
51862;SDS011;37900;52.996;6.278;2023-03-14T08:03:03;3.72;;;1.33;;
51862;SDS011;37900;52.996;6.278;2023-03-14T08:05:29;2.55;;;1.23;;
51862;SDS011;37900;52.996;6.278;2023-03-14T08:07:55;3.22;;;1.45;;
51862;SDS011;37900;52.996;6.278;2023-03-14T08:10:21;6.60;;;2.05;;
51862;SDS011;37900;52.996;6.278;2023-03-14T08:12:50;3.47;;;1.58;;
51862;SDS011;37900;52.996;6.278;2023-03-14T08:15:18;2.70;;;1.63;;
51862;SDS011;37900;52.996;6.278;2023-03-14T08:17:44;2.75;;;1.27;;
51862;SDS011;37900;52.996;6.278;2023-03-14T08:20:10;3.00;;;1.40;;
51862;SDS011;37900;52.996;6.278;2023-03-14T08:22:37;2.53;;;1.17;;
51862;SDS011;37900;52.996;6.278;2023-03-14T08:25:03;2.17;;;1.30;;
51862;SDS011;37900;52.996;6.278;2023-03-14T08:27:29;4.20;;;1.42;;
51862;SDS011;37900;52.996;6.278;2023-03-14T08:29:55;3.72;;;1.40;;
51862;SDS011;37900;52.996;6.278;2023-03-14T08:32:21;2.33;;;1.40;;
51862;SDS011;37900;52.996;6.278;2023-03-14T08:34:48;1.83;;;1.30;;
51862;SDS011;37900;52.996;6.278;2023-03-14T08:37:14;2.63;;;1.30;;
51862;SDS011;37900;52.996;6.278;2023-03-14T08:39:40;1.58;;;1.27;;
51862;SDS011;37900;52.996;6.278;2023-03-14T08:42:05;2.67;;;1.63;;
51862;SDS011;37900;52.996;6.278;2023-03-14T08:44:31;3.88;;;1.45;;
51862;SDS011;37900;52.996;6.278;2023-03-14T08:46:57;3.22;;;1.35;;
51862;SDS011;37900;52.996;6.278;2023-03-14T08:49:23;2.65;;;1.33;;
51862;SDS011;37900;52.996;6.278;2023-03-14T08:51:49;6.57;;;1.50;;
51862;SDS011;37900;52.996;6.278;2023-03-14T08:54:14;2.75;;;0.93;;
51862;SDS011;37900;52.996;6.278;2023-03-14T08:56:40;2.42;;;1.45;;
51862;SDS011;37900;52.996;6.278;2023-03-14T08:59:09;1.73;;;1.17;;
51862;SDS011;37900;52.996;6.278;2023-03-14T09:01:36;3.58;;;1.27;;
51862;SDS011;37900;52.996;6.278;2023-03-14T09:04:01;2.53;;;1.15;;
51862;SDS011;37900;52.996;6.278;2023-03-14T09:06:27;2.22;;;1.30;;
51862;SDS011;37900;52.996;6.278;2023-03-14T09:08:53;2.63;;;1.27;;
51862;SDS011;37900;52.996;6.278;2023-03-14T09:11:19;3.13;;;1.45;;
51862;SDS011;37900;52.996;6.278;2023-03-14T09:13:45;3.65;;;1.30;;
51862;SDS011;37900;52.996;6.278;2023-03-14T09:16:11;3.45;;;1.33;;
51862;SDS011;37900;52.996;6.278;2023-03-14T09:18:36;3.53;;;1.23;;
51862;SDS011;37900;52.996;6.278;2023-03-14T09:21:02;2.75;;;1.30;;
51862;SDS011;37900;52.996;6.278;2023-03-14T09:23:28;3.08;;;1.17;;
51862;SDS011;37900;52.996;6.278;2023-03-14T09:25:57;2.20;;;0.98;;
51862;SDS011;37900;52.996;6.278;2023-03-14T09:28:23;2.63;;;1.00;;
51862;SDS011;37900;52.996;6.278;2023-03-14T09:30:49;1.33;;;0.98;;
51862;SDS011;37900;52.996;6.278;2023-03-14T09:33:15;1.85;;;1.10;;
51862;SDS011;37900;52.996;6.278;2023-03-14T09:35:41;3.80;;;1.20;;
51862;SDS011;37900;52.996;6.278;2023-03-14T09:38:07;4.03;;;1.17;;
51862;SDS011;37900;52.996;6.278;2023-03-14T09:40:36;3.33;;;1.45;;
51862;SDS011;37900;52.996;6.278;2023-03-14T09:43:02;3.80;;;1.13;;
51862;SDS011;37900;52.996;6.278;2023-03-14T09:45:29;1.88;;;1.30;;
51862;SDS011;37900;52.996;6.278;2023-03-14T09:48:02;2.42;;;1.20;;
51862;SDS011;37900;52.996;6.278;2023-03-14T09:50:40;1.42;;;1.30;;
51862;SDS011;37900;52.996;6.278;2023-03-14T09:56:48;2.75;;;1.27;;
51862;SDS011;37900;52.996;6.278;2023-03-14T09:59:01;2.13;;;1.13;;
51862;SDS011;37900;52.996;6.278;2023-03-14T10:01:31;1.75;;;1.30;;
51862;SDS011;37900;52.996;6.278;2023-03-14T10:04:00;3.85;;;1.10;;
51862;SDS011;37900;52.996;6.278;2023-03-14T10:06:31;2.10;;;1.10;;
51862;SDS011;37900;52.996;6.278;2023-03-14T10:08:57;2.08;;;1.10;;
51862;SDS011;37900;52.996;6.278;2023-03-14T10:11:23;1.45;;;0.88;;
51862;SDS011;37900;52.996;6.278;2023-03-14T10:14:04;1.83;;;0.90;;
51862;SDS011;37900;52.996;6.278;2023-03-14T10:16:39;3.40;;;1.20;;
51862;SDS011;37900;52.996;6.278;2023-03-14T10:19:09;1.67;;;1.08;;
51862;SDS011;37900;52.996;6.278;2023-03-14T10:24:20;1.52;;;1.08;;
51862;SDS011;37900;52.996;6.278;2023-03-14T10:29:31;2.92;;;1.20;;
51862;SDS011;37900;52.996;6.278;2023-03-14T10:31:59;3.60;;;1.05;;
51862;SDS011;37900;52.996;6.278;2023-03-14T10:34:31;2.45;;;1.20;;
51862;SDS011;37900;52.996;6.278;2023-03-14T10:36:59;3.70;;;1.90;;
51862;SDS011;37900;52.996;6.278;2023-03-14T10:42:20;3.45;;;1.60;;
51862;SDS011;37900;52.996;6.278;2023-03-14T10:44:57;6.32;;;1.60;;
51862;SDS011;37900;52.996;6.278;2023-03-14T10:47:26;3.92;;;1.85;;
51862;SDS011;37900;52.996;6.278;2023-03-14T10:49:53;4.15;;;1.50;;
51862;SDS011;37900;52.996;6.278;2023-03-14T10:52:21;3.65;;;1.45;;
51862;SDS011;37900;52.996;6.278;2023-03-14T10:55:01;4.45;;;1.63;;
51862;SDS011;37900;52.996;6.278;2023-03-14T10:59:55;4.97;;;1.40;;
51862;SDS011;37900;52.996;6.278;2023-03-14T11:02:32;3.63;;;1.23;;
51862;SDS011;37900;52.996;6.278;2023-03-14T11:05:15;4.13;;;1.55;;
51862;SDS011;37900;52.996;6.278;2023-03-14T11:07:51;5.30;;;1.38;;
51862;SDS011;37900;52.996;6.278;2023-03-14T11:26:45;4.28;;;1.67;;
51862;SDS011;37900;52.996;6.278;2023-03-14T11:29:21;4.57;;;1.50;;
51862;SDS011;37900;52.996;6.278;2023-03-14T11:31:59;4.13;;;1.48;;
51862;SDS011;37900;52.996;6.278;2023-03-14T11:34:31;7.10;;;1.60;;
51862;SDS011;37900;52.996;6.278;2023-03-14T11:37:14;5.70;;;1.60;;
51862;SDS011;37900;52.996;6.278;2023-03-14T11:42:46;14.20;;;1.90;;
51862;SDS011;37900;52.996;6.278;2023-03-14T11:45:42;2.40;;;1.67;;
51862;SDS011;37900;52.996;6.278;2023-03-14T11:48:21;3.40;;;1.67;;
51862;SDS011;37900;52.996;6.278;2023-03-14T11:51:11;2.63;;;1.50;;
51862;SDS011;37900;52.996;6.278;2023-03-14T11:53:47;4.47;;;1.52;;
51862;SDS011;37900;52.996;6.278;2023-03-14T11:56:47;3.38;;;1.50;;
51862;SDS011;37900;52.996;6.278;2023-03-14T11:59:24;2.20;;;1.33;;
51862;SDS011;37900;52.996;6.278;2023-03-14T12:02:06;4.30;;;1.63;;
51862;SDS011;37900;52.996;6.278;2023-03-14T12:10:40;3.50;;;1.38;;
51862;SDS011;37900;52.996;6.278;2023-03-14T12:13:16;2.80;;;1.38;;
51862;SDS011;37900;52.996;6.278;2023-03-14T12:15:48;4.22;;;1.65;;
51862;SDS011;37900;52.996;6.278;2023-03-14T12:18:34;2.88;;;1.30;;
51862;SDS011;37900;52.996;6.278;2023-03-14T12:21:07;3.58;;;1.20;;
51862;SDS011;37900;52.996;6.278;2023-03-14T12:23:48;3.42;;;1.33;;
51862;SDS011;37900;52.996;6.278;2023-03-14T12:26:24;1.67;;;1.20;;
51862;SDS011;37900;52.996;6.278;2023-03-14T12:34:01;2.90;;;1.20;;
51862;SDS011;37900;52.996;6.278;2023-03-14T12:41:52;2.25;;;1.35;;
51862;SDS011;37900;52.996;6.278;2023-03-14T12:46:56;2.45;;;1.10;;
51862;SDS011;37900;52.996;6.278;2023-03-14T12:49:29;4.45;;;1.52;;
51862;SDS011;37900;52.996;6.278;2023-03-14T12:51:59;3.67;;;1.25;;
51862;SDS011;37900;52.996;6.278;2023-03-14T13:04:32;3.90;;;1.40;;
51862;SDS011;37900;52.996;6.278;2023-03-14T13:07:11;2.13;;;1.15;;
51862;SDS011;37900;52.996;6.278;2023-03-14T13:09:54;7.43;;;2.20;;
51862;SDS011;37900;52.996;6.278;2023-03-14T13:12:31;2.92;;;1.23;;
51862;SDS011;37900;52.996;6.278;2023-03-14T13:15:13;3.70;;;1.60;;
51862;SDS011;37900;52.996;6.278;2023-03-14T13:17:45;3.95;;;1.50;;
51862;SDS011;37900;52.996;6.278;2023-03-14T13:20:15;3.55;;;1.40;;
51862;SDS011;37900;52.996;6.278;2023-03-14T13:22:47;3.55;;;1.63;;
51862;SDS011;37900;52.996;6.278;2023-03-14T13:25:14;4.18;;;1.20;;
51862;SDS011;37900;52.996;6.278;2023-03-14T13:27:42;4.38;;;1.92;;
51862;SDS011;37900;52.996;6.278;2023-03-14T13:30:18;3.03;;;1.40;;
51862;SDS011;37900;52.996;6.278;2023-03-14T13:32:49;3.30;;;1.15;;
51862;SDS011;37900;52.996;6.278;2023-03-14T13:35:21;3.65;;;1.58;;
51862;SDS011;37900;52.996;6.278;2023-03-14T13:37:52;2.40;;;1.27;;
51862;SDS011;37900;52.996;6.278;2023-03-14T13:40:26;3.17;;;1.30;;
51862;SDS011;37900;52.996;6.278;2023-03-14T13:43:02;5.43;;;1.40;;
51862;SDS011;37900;52.996;6.278;2023-03-14T13:45:31;4.63;;;1.23;;
51862;SDS011;37900;52.996;6.278;2023-03-14T13:48:08;3.08;;;1.30;;
51862;SDS011;37900;52.996;6.278;2023-03-14T13:50:36;4.93;;;1.70;;
51862;SDS011;37900;52.996;6.278;2023-03-14T13:53:01;2.72;;;1.27;;
51862;SDS011;37900;52.996;6.278;2023-03-14T13:55:27;3.22;;;1.13;;
51862;SDS011;37900;52.996;6.278;2023-03-14T13:57:55;4.38;;;1.20;;
51862;SDS011;37900;52.996;6.278;2023-03-14T14:00:25;1.38;;;0.80;;
51862;SDS011;37900;52.996;6.278;2023-03-14T14:02:56;4.03;;;1.10;;
51862;SDS011;37900;52.996;6.278;2023-03-14T14:05:25;2.13;;;1.30;;
51862;SDS011;37900;52.996;6.278;2023-03-14T14:07:52;2.75;;;1.20;;
51862;SDS011;37900;52.996;6.278;2023-03-14T14:10:19;2.83;;;1.45;;
51862;SDS011;37900;52.996;6.278;2023-03-14T14:12:53;4.18;;;1.45;;
51862;SDS011;37900;52.996;6.278;2023-03-14T14:15:27;3.40;;;1.25;;
51862;SDS011;37900;52.996;6.278;2023-03-14T14:18:06;1.35;;;0.88;;
51862;SDS011;37900;52.996;6.278;2023-03-14T14:20:40;2.25;;;1.40;;
51862;SDS011;37900;52.996;6.278;2023-03-14T14:23:12;3.08;;;1.40;;
51862;SDS011;37900;52.996;6.278;2023-03-14T14:25:40;3.28;;;1.40;;
51862;SDS011;37900;52.996;6.278;2023-03-14T14:28:40;3.55;;;1.05;;
51862;SDS011;37900;52.996;6.278;2023-03-14T14:33:29;3.35;;;1.73;;
51862;SDS011;37900;52.996;6.278;2023-03-14T14:36:04;1.85;;;0.88;;
51862;SDS011;37900;52.996;6.278;2023-03-14T14:38:39;3.60;;;1.40;;
51862;SDS011;37900;52.996;6.278;2023-03-14T14:41:04;4.93;;;0.95;;
51862;SDS011;37900;52.996;6.278;2023-03-14T14:43:30;2.30;;;1.23;;
51862;SDS011;37900;52.996;6.278;2023-03-14T14:46:01;3.20;;;1.17;;
51862;SDS011;37900;52.996;6.278;2023-03-14T14:48:35;1.50;;;1.10;;
51862;SDS011;37900;52.996;6.278;2023-03-14T14:51:03;2.50;;;1.17;;
51862;SDS011;37900;52.996;6.278;2023-03-14T14:53:36;2.22;;;1.02;;
51862;SDS011;37900;52.996;6.278;2023-03-14T14:59:21;2.43;;;0.90;;
51862;SDS011;37900;52.996;6.278;2023-03-14T15:01:54;1.42;;;0.90;;
51862;SDS011;37900;52.996;6.278;2023-03-14T15:04:22;2.20;;;1.00;;
51862;SDS011;37900;52.996;6.278;2023-03-14T15:06:48;2.58;;;1.10;;
51862;SDS011;37900;52.996;6.278;2023-03-14T15:11:42;3.70;;;1.48;;
51862;SDS011;37900;52.996;6.278;2023-03-14T15:14:08;2.03;;;1.00;;
51862;SDS011;37900;52.996;6.278;2023-03-14T15:16:34;4.10;;;1.38;;
51862;SDS011;37900;52.996;6.278;2023-03-14T15:19:01;5.22;;;1.33;;
51862;SDS011;37900;52.996;6.278;2023-03-14T15:21:31;5.65;;;1.70;;
51862;SDS011;37900;52.996;6.278;2023-03-14T15:23:57;2.50;;;1.25;;
51862;SDS011;37900;52.996;6.278;2023-03-14T15:26:24;4.03;;;1.55;;
51862;SDS011;37900;52.996;6.278;2023-03-14T15:28:51;4.22;;;1.33;;
51862;SDS011;37900;52.996;6.278;2023-03-14T15:31:17;3.85;;;0.90;;
51862;SDS011;37900;52.996;6.278;2023-03-14T15:33:44;1.40;;;0.90;;
51862;SDS011;37900;52.996;6.278;2023-03-14T15:38:53;5.25;;;1.27;;
51862;SDS011;37900;52.996;6.278;2023-03-14T15:41:20;2.90;;;1.23;;
51862;SDS011;37900;52.996;6.278;2023-03-14T15:43:46;2.00;;;1.10;;
51862;SDS011;37900;52.996;6.278;2023-03-14T15:46:13;4.68;;;1.77;;
51862;SDS011;37900;52.996;6.278;2023-03-14T15:48:39;4.85;;;2.00;;
51862;SDS011;37900;52.996;6.278;2023-03-14T15:51:06;4.80;;;1.50;;
51862;SDS011;37900;52.996;6.278;2023-03-14T15:53:32;2.65;;;1.05;;
51862;SDS011;37900;52.996;6.278;2023-03-14T15:55:58;1.70;;;1.02;;
51862;SDS011;37900;52.996;6.278;2023-03-14T15:58:24;1.40;;;0.85;;
51862;SDS011;37900;52.996;6.278;2023-03-14T16:00:50;4.07;;;1.48;;
51862;SDS011;37900;52.996;6.278;2023-03-14T16:03:16;1.97;;;0.90;;
51862;SDS011;37900;52.996;6.278;2023-03-14T16:05:42;2.70;;;1.08;;
51862;SDS011;37900;52.996;6.278;2023-03-14T16:08:08;4.03;;;1.23;;
51862;SDS011;37900;52.996;6.278;2023-03-14T16:10:34;2.08;;;1.25;;
51862;SDS011;37900;52.996;6.278;2023-03-14T16:13:00;2.53;;;1.17;;
51862;SDS011;37900;52.996;6.278;2023-03-14T16:15:26;13.30;;;1.75;;
51862;SDS011;37900;52.996;6.278;2023-03-14T16:17:54;2.38;;;0.90;;
51862;SDS011;37900;52.996;6.278;2023-03-14T16:20:21;3.00;;;1.83;;
51862;SDS011;37900;52.996;6.278;2023-03-14T16:22:47;5.70;;;1.20;;
51862;SDS011;37900;52.996;6.278;2023-03-14T16:25:13;3.88;;;1.48;;